createdAt,value
2023-03-11T00:01:12.051Z,100419.09
2023-03-11T00:03:43.489Z,100424.25
2023-03-11T00:06:12.110Z,100431.13
2023-03-11T00:08:42.030Z,100441.53
2023-03-11T00:11:10.740Z,100446.69
2023-03-11T00:13:40.929Z,100453.66
2023-03-11T00:16:11.100Z,100458.81
2023-03-11T00:18:39.552Z,100457.13
2023-03-11T00:21:16.519Z,100470.91
2023-03-11T00:23:46.533Z,100475.25
2023-03-11T00:26:15.851Z,100479.59
2023-03-11T00:28:44.593Z,100474.31
2023-03-11T00:31:14.648Z,100481.34
2023-03-11T00:33:43.044Z,100483.97
2023-03-11T00:36:25.320Z,100492.53
2023-03-11T00:38:55.292Z,100500.34
2023-03-11T00:41:23.734Z,100499.47
2023-03-11T00:43:52.214Z,100509.88
2023-03-11T00:46:20.698Z,100502.97
2023-03-11T00:48:51.438Z,100512.41
2023-03-11T00:51:20.470Z,100523.63
2023-03-11T00:53:48.966Z,100532.16
2023-03-11T00:56:18.890Z,100525.25
2023-03-11T00:58:47.862Z,100535.53
2023-03-11T01:01:19.399Z,100531.22
2023-03-11T01:03:48.162Z,100540.63
2023-03-11T01:06:16.706Z,100534.50
2023-03-11T01:08:45.131Z,100542.94
2023-03-11T01:11:13.637Z,100543.72
2023-03-11T01:13:43.573Z,100546.28
2023-03-11T01:16:12.142Z,100548.00
2023-03-11T01:18:40.513Z,100552.22
2023-03-11T01:21:08.941Z,100554.81
2023-03-11T01:23:37.436Z,100552.16
2023-03-11T01:26:11.949Z,100556.47
2023-03-11T01:28:40.383Z,100567.66
2023-03-11T01:31:11.290Z,100565.91
2023-03-11T01:33:39.873Z,100571.06
2023-03-11T01:36:10.186Z,100579.69
2023-03-11T01:38:38.947Z,100581.38
2023-03-11T01:41:11.283Z,100582.25
2023-03-11T01:43:49.941Z,100589.16
2023-03-11T01:46:22.884Z,100597.78
2023-03-11T01:48:53.767Z,100596.09
2023-03-11T01:51:29.117Z,100600.34
2023-03-11T01:54:01.066Z,100590.03
2023-03-11T01:56:29.989Z,100600.34
2023-03-11T01:58:59.329Z,100603.88
2023-03-11T02:01:29.338Z,100596.97
2023-03-11T02:03:59.388Z,100601.13
2023-03-11T02:06:28.715Z,100605.34
2023-03-11T02:08:58.096Z,100598.91
2023-03-11T02:11:30.450Z,100602.03
2023-03-11T02:14:05.137Z,100599.81
2023-03-11T02:16:35.493Z,100601.91
2023-03-11T02:19:17.206Z,100606.63
2023-03-11T02:21:46.473Z,100607.22
2023-03-11T02:24:23.583Z,100606.28
2023-03-11T02:26:57.421Z,100604.72
2023-03-11T02:29:29.258Z,100611.16
2023-03-11T02:31:58.441Z,100614.03
2023-03-11T02:34:30.204Z,100605.69
2023-03-11T02:36:59.437Z,100598.97
2023-03-11T02:39:32.857Z,100604.25
2023-03-11T02:42:07.543Z,100606.81
2023-03-11T02:44:36.648Z,100607.75
2023-03-11T02:47:05.639Z,100608.66
2023-03-11T02:49:34.479Z,100620.72
2023-03-11T02:52:02.848Z,100620.66
2023-03-11T02:54:31.252Z,100631.81
2023-03-11T02:56:59.916Z,100631.81
2023-03-11T02:59:30.035Z,100634.47
2023-03-11T03:01:59.084Z,100638.59
2023-03-11T03:04:28.252Z,100639.19
2023-03-11T03:06:57.690Z,100646.50
2023-03-11T03:09:30.786Z,100642.53
2023-03-11T03:11:59.390Z,100657.53
2023-03-11T03:14:29.976Z,100652.69
2023-03-11T03:16:58.776Z,100659.97
2023-03-11T03:19:27.799Z,100657.75
2023-03-11T03:21:56.557Z,100659.94
2023-03-11T03:24:25.261Z,100653.66
2023-03-11T03:26:53.820Z,100655.09
2023-03-11T03:29:22.192Z,100658.34
2023-03-11T03:31:51.974Z,100661.47
2023-03-11T03:34:20.442Z,100664.47
2023-03-11T03:36:48.951Z,100673.66
2023-03-11T03:39:18.760Z,100675.91
2023-03-11T03:41:47.537Z,100673.06
2023-03-11T03:44:16.078Z,100689.09
2023-03-11T03:46:44.520Z,100687.06
2023-03-11T03:49:14.349Z,100681.63
2023-03-11T03:51:42.778Z,100691.63
2023-03-11T03:54:11.238Z,100692.25
2023-03-11T03:56:40.309Z,100692.81
2023-03-11T03:59:16.370Z,100701.06
2023-03-11T04:01:44.752Z,100708.69
2023-03-11T04:04:14.901Z,100708.56
2023-03-11T04:06:44.384Z,100709.97
2023-03-11T04:09:14.259Z,100705.47
2023-03-11T04:11:42.646Z,100712.22
2023-03-11T04:14:11.184Z,100705.88
2023-03-11T04:16:39.676Z,100709.97
2023-03-11T04:19:08.993Z,100730.28
2023-03-11T04:21:38.823Z,100729.25
2023-03-11T04:24:07.841Z,100730.81
2023-03-11T04:26:36.751Z,100735.94
2023-03-11T04:29:05.235Z,100734.13
2023-03-11T04:31:33.621Z,100745.13
2023-03-11T04:34:02.162Z,100744.16
2023-03-11T04:36:30.561Z,100751.06
2023-03-11T04:39:00.997Z,100750.25
2023-03-11T04:41:29.476Z,100747.84
2023-03-11T04:43:58.064Z,100759.94
2023-03-11T04:46:26.672Z,100755.69
2023-03-11T04:48:55.116Z,100758.19
2023-03-11T04:51:23.488Z,100761.56
2023-03-11T04:53:51.929Z,100765.81
2023-03-11T04:56:21.684Z,100772.06
2023-03-11T04:58:50.075Z,100765.31
2023-03-11T05:01:18.462Z,100778.97
2023-03-11T05:03:47.615Z,100776.41
2023-03-11T05:06:16.272Z,100772.28
2023-03-11T05:08:44.798Z,100776.53
2023-03-11T05:11:13.152Z,100768.69
2023-03-11T05:13:43.692Z,100778.00
2023-03-11T05:16:12.076Z,100789.91
2023-03-11T05:18:40.521Z,100791.59
2023-03-11T05:21:09.138Z,100788.06
2023-03-11T05:23:37.583Z,100787.88
2023-03-11T05:26:07.034Z,100788.63
2023-03-11T05:28:35.510Z,100791.03
2023-03-11T05:31:10.446Z,100785.81
2023-03-11T05:33:39.188Z,100795.13
2023-03-11T05:36:10.704Z,100803.66
2023-03-11T05:38:39.494Z,100793.94
2023-03-11T05:41:08.104Z,100803.47
2023-03-11T05:43:36.492Z,100812.88
2023-03-11T05:46:06.551Z,100809.34
2023-03-11T05:48:36.395Z,100815.22
2023-03-11T05:51:09.431Z,100818.59
2023-03-11T05:53:38.892Z,100824.59
2023-03-11T05:56:08.399Z,100825.44
2023-03-11T05:58:36.796Z,100829.75
2023-03-11T06:01:15.833Z,100832.31
2023-03-11T06:03:44.668Z,100828.06
2023-03-11T06:06:14.951Z,100830.63
2023-03-11T06:08:46.092Z,100834.00
2023-03-11T06:11:14.825Z,100837.44
2023-03-11T06:13:43.453Z,100833.19
2023-03-11T06:16:14.914Z,100840.09
2023-03-11T06:18:43.589Z,100839.28
2023-03-11T06:21:17.346Z,100841.63
2023-03-11T06:23:46.008Z,100853.81
2023-03-11T06:26:17.957Z,100857.19
2023-03-11T06:28:47.360Z,100860.72
2023-03-11T06:31:20.644Z,100866.75
2023-03-11T06:33:49.888Z,100869.31
2023-03-11T06:36:21.489Z,100874.59
2023-03-11T06:38:52.283Z,100876.44
2023-03-11T06:41:20.753Z,100879.16
2023-03-11T06:43:50.906Z,100883.66
2023-03-11T06:46:23.670Z,100884.63
2023-03-11T06:48:52.893Z,100893.53
2023-03-11T06:51:22.544Z,100890.25
2023-03-11T06:53:51.927Z,100899.97
2023-03-11T06:56:22.559Z,100907.09
2023-03-11T06:58:51.534Z,100908.19
2023-03-11T07:01:24.470Z,100921.38
2023-03-11T07:03:53.857Z,100919.91
2023-03-11T07:06:25.098Z,100915.03
2023-03-11T07:08:54.841Z,100923.03
2023-03-11T07:11:26.564Z,100934.50
2023-03-11T07:13:57.074Z,100939.97
2023-03-11T07:16:30.743Z,100935.16
2023-03-11T07:19:02.904Z,100936.34
2023-03-11T07:21:33.674Z,100942.81
2023-03-11T07:24:04.015Z,100936.28
2023-03-11T07:26:34.662Z,100944.53
2023-03-11T07:29:08.530Z,100952.69
2023-03-11T07:31:39.240Z,100950.47
2023-03-11T07:34:11.632Z,100951.66
2023-03-11T07:36:43.017Z,100958.06
2023-03-11T07:39:16.309Z,100958.44
2023-03-11T07:41:45.808Z,100963.88
2023-03-11T07:44:16.869Z,100965.03
2023-03-11T07:46:47.058Z,100975.63
2023-03-11T07:49:15.491Z,100981.06
2023-03-11T07:51:44.864Z,100970.22
2023-03-11T07:54:13.922Z,100966.19
2023-03-11T07:56:42.523Z,100973.38
2023-03-11T07:59:11.579Z,100973.66
2023-03-11T08:01:41.385Z,100978.22
2023-03-11T08:04:14.642Z,100982.81
2023-03-11T08:06:45.719Z,100990.03
2023-03-11T08:09:14.655Z,100993.72
2023-03-11T08:11:43.619Z,100994.03
2023-03-11T08:14:12.254Z,101001.91
2023-03-11T08:16:42.133Z,100995.28
2023-03-11T08:19:14.482Z,100994.44
2023-03-11T08:21:42.894Z,101000.00
2023-03-11T08:24:14.263Z,101004.56
2023-03-11T08:26:43.528Z,101009.09
2023-03-11T08:29:12.002Z,101010.25
2023-03-11T08:31:40.888Z,101001.09
2023-03-11T08:34:13.285Z,101013.44
2023-03-11T08:36:42.263Z,101012.84
2023-03-11T08:39:11.073Z,101023.38
2023-03-11T08:41:39.723Z,101017.53
2023-03-11T08:44:08.095Z,101021.28
2023-03-11T08:46:40.252Z,101012.84
2023-03-11T08:49:08.980Z,101013.22
2023-03-11T08:51:39.034Z,101015.25
2023-03-11T08:54:08.077Z,101022.41
2023-03-11T08:56:36.523Z,101025.19
2023-03-11T08:59:04.939Z,101030.50
2023-03-11T09:01:34.125Z,101024.56
2023-03-11T09:04:02.532Z,101032.50
2023-03-11T09:06:33.823Z,101032.69
2023-03-11T09:09:03.826Z,101032.00
2023-03-11T09:11:33.431Z,101035.47
2023-03-11T09:14:01.792Z,101032.13
2023-03-11T09:16:30.604Z,101035.75
2023-03-11T09:19:00.414Z,101037.53
2023-03-11T09:21:29.197Z,101034.19
2023-03-11T09:23:57.910Z,101031.78
2023-03-11T09:26:29.515Z,101036.28
2023-03-11T09:28:58.169Z,101034.66
2023-03-11T09:31:27.998Z,101040.03
2023-03-11T09:33:57.167Z,101036.88
2023-03-11T09:36:26.740Z,101031.91
2023-03-11T09:38:56.351Z,101025.25
2023-03-11T09:41:44.939Z,101034.06
2023-03-11T09:44:26.555Z,101028.13
2023-03-11T09:47:44.958Z,101032.53
2023-03-11T09:50:32.768Z,101023.22
2023-03-11T09:53:19.478Z,101031.22
2023-03-11T09:55:51.299Z,101031.56
2023-03-11T09:58:31.061Z,101038.91
2023-03-11T10:01:01.231Z,101029.63
2023-03-11T10:03:33.837Z,101040.16
2023-03-11T10:06:14.186Z,101042.81
2023-03-11T10:08:56.422Z,101034.25
2023-03-11T10:12:08.343Z,101048.09
2023-03-11T10:14:54.849Z,101038.84
2023-03-11T10:17:41.933Z,101043.47
2023-03-11T10:20:17.091Z,101049.13
2023-03-11T10:22:53.769Z,101043.09
2023-03-11T10:25:27.835Z,101046.56
2023-03-11T10:28:02.778Z,101049.44
2023-03-11T10:30:39.258Z,101055.66
2023-03-11T10:33:18.678Z,101057.59
2023-03-11T10:35:52.502Z,101061.25
2023-03-11T10:38:25.052Z,101053.81
2023-03-11T10:40:57.874Z,101057.66
2023-03-11T10:43:33.140Z,101061.31
2023-03-11T10:46:09.269Z,101051.13
2023-03-11T10:48:38.276Z,101061.78
2023-03-11T10:51:18.145Z,101055.09
2023-03-11T10:53:50.183Z,101062.03
2023-03-11T10:56:30.830Z,101050.34
2023-03-11T10:58:59.599Z,101055.09
2023-03-11T11:01:30.688Z,101047.59
2023-03-11T11:04:02.355Z,101053.94
2023-03-11T11:06:33.624Z,101055.81
2023-03-11T11:09:17.392Z,101051.56
2023-03-11T11:12:04.502Z,101055.94
2023-03-11T11:14:48.784Z,101051.75
2023-03-11T11:17:28.253Z,101057.31
2023-03-11T11:20:00.015Z,101055.00
2023-03-11T11:22:32.266Z,101054.34
2023-03-11T11:25:00.700Z,101056.19
2023-03-11T11:27:32.153Z,101058.03
2023-03-11T11:30:18.064Z,101047.75
2023-03-11T11:32:48.109Z,101051.28
2023-03-11T11:35:20.356Z,101056.53
2023-03-11T11:37:51.737Z,101049.75
2023-03-11T11:40:33.340Z,101052.53
2023-03-11T11:43:07.000Z,101053.63
2023-03-11T11:45:40.194Z,101061.66
2023-03-11T11:48:21.223Z,101052.31
2023-03-11T11:50:54.137Z,101054.13
2023-03-11T11:53:35.005Z,101059.47
2023-03-11T11:56:03.887Z,101047.63
2023-03-11T11:58:32.926Z,101043.53
2023-03-11T12:01:15.878Z,101050.63
2023-03-11T12:04:21.144Z,101060.47
2023-03-11T12:07:00.179Z,101045.16
2023-03-11T12:09:38.900Z,101049.66
2023-03-11T12:12:20.372Z,101051.69
2023-03-11T12:14:59.512Z,101048.50
2023-03-11T12:17:30.608Z,101045.44
2023-03-11T12:20:05.014Z,101051.00
2023-03-11T12:23:21.713Z,101042.81
2023-03-11T12:26:06.231Z,101046.78
2023-03-11T12:28:43.419Z,101047.09
2023-03-11T12:31:14.543Z,101043.88
2023-03-11T12:33:45.396Z,101045.69
2023-03-11T12:36:30.520Z,101057.19
2023-03-11T12:38:59.818Z,101047.03
2023-03-11T12:41:37.008Z,101044.91
2023-03-11T12:44:25.008Z,101048.72
2023-03-11T12:47:23.539Z,101047.47
2023-03-11T12:49:55.340Z,101039.94
2023-03-11T12:52:31.216Z,101048.66
2023-03-11T12:55:34.012Z,101051.34
2023-03-11T12:58:51.526Z,101050.00
2023-03-11T13:01:59.369Z,101049.31
2023-03-11T13:04:41.384Z,101053.75
2023-03-11T13:07:46.935Z,101055.63
2023-03-11T13:10:39.574Z,101054.16
2023-03-11T13:13:42.800Z,101065.03
2023-03-11T13:16:42.282Z,101063.53
2023-03-11T13:19:53.915Z,101064.59
2023-03-11T13:23:16.785Z,101066.53
2023-03-11T13:26:27.875Z,101070.06
2023-03-11T13:29:25.661Z,101071.84
2023-03-11T13:32:14.547Z,101070.13
2023-03-11T13:34:51.398Z,101064.88
2023-03-11T13:37:30.798Z,101066.63
2023-03-11T13:40:14.356Z,101072.75
2023-03-11T13:42:46.865Z,101061.31
2023-03-11T13:45:30.521Z,101060.34
2023-03-11T13:48:03.032Z,101065.50
2023-03-11T13:50:37.054Z,101070.63
2023-03-11T13:53:11.795Z,101066.88
2023-03-11T13:55:46.500Z,101058.88
2023-03-11T13:58:22.786Z,101067.50
2023-03-11T14:00:54.864Z,101076.94
2023-03-11T14:03:26.741Z,101068.16
2023-03-11T14:06:01.830Z,101072.38
2023-03-11T14:08:32.854Z,101074.50
2023-03-11T14:11:04.711Z,101077.00
2023-03-11T14:13:35.060Z,101072.00
2023-03-11T14:16:08.497Z,101074.03
2023-03-11T14:18:39.958Z,101066.72
2023-03-11T14:21:15.455Z,101074.97
2023-03-11T14:23:46.657Z,101086.69
2023-03-11T14:26:20.584Z,101095.53
2023-03-11T14:28:52.092Z,101087.47
2023-03-11T14:31:30.757Z,101106.38
2023-03-11T14:34:04.599Z,101098.03
2023-03-11T14:36:44.741Z,101094.03
2023-03-11T14:39:29.270Z,101084.06
2023-03-11T14:42:06.763Z,101097.72
2023-03-11T14:44:41.744Z,101091.38
2023-03-11T14:47:16.648Z,101091.06
2023-03-11T14:49:45.611Z,101100.44
2023-03-11T14:52:21.101Z,101092.25
2023-03-11T14:54:50.697Z,101099.16
2023-03-11T14:57:33.009Z,101085.97
2023-03-11T15:00:01.780Z,101100.75
2023-03-11T15:02:40.465Z,101090.09
2023-03-11T15:05:20.178Z,101092.47
2023-03-11T15:07:50.474Z,101082.66
2023-03-11T15:10:18.920Z,101085.13
2023-03-11T15:12:50.093Z,101091.09
2023-03-11T15:15:28.855Z,101089.22
2023-03-11T15:17:59.500Z,101090.94
2023-03-11T15:20:32.331Z,101085.69
2023-03-11T15:23:04.038Z,101090.00
2023-03-11T15:25:38.110Z,101089.13
2023-03-11T15:28:25.322Z,101100.41
2023-03-11T15:31:17.046Z,101085.50
2023-03-11T15:33:47.279Z,101092.41
2023-03-11T15:36:33.398Z,101087.88
2023-03-11T15:39:18.589Z,101091.06
2023-03-11T15:41:49.271Z,101095.13
2023-03-11T15:44:32.392Z,101093.94
2023-03-11T15:47:01.037Z,101089.34
2023-03-11T15:49:30.824Z,101094.22
2023-03-11T15:52:03.456Z,101097.41
2023-03-11T15:54:31.963Z,101100.59
2023-03-11T15:57:02.149Z,101110.06
2023-03-11T15:59:32.445Z,101113.38
2023-03-11T16:02:01.524Z,101107.09
2023-03-11T16:04:30.131Z,101107.91
2023-03-11T16:07:08.046Z,101112.19
2023-03-11T16:09:37.279Z,101118.09
2023-03-11T16:12:16.400Z,101111.78
2023-03-11T16:14:47.718Z,101116.88
2023-03-11T16:17:16.345Z,101127.22
2023-03-11T16:19:45.197Z,101135.72
2023-03-11T16:22:20.425Z,101144.97
2023-03-11T16:24:51.964Z,101147.75
2023-03-11T16:27:21.622Z,101136.16
2023-03-11T16:29:51.395Z,101149.69
2023-03-11T16:32:20.010Z,101149.22
2023-03-11T16:34:48.915Z,101133.41
2023-03-11T16:37:20.717Z,101140.84
2023-03-11T16:39:49.746Z,101137.56
2023-03-11T16:42:24.700Z,101145.28
2023-03-11T16:44:55.261Z,101141.69
2023-03-11T16:47:23.633Z,101145.94
2023-03-11T16:49:53.533Z,101145.22
2023-03-11T16:52:23.647Z,101142.50
2023-03-11T16:54:52.362Z,101147.66
2023-03-11T16:57:20.741Z,101145.88
2023-03-11T16:59:49.788Z,101144.59
2023-03-11T17:02:19.937Z,101151.78
2023-03-11T17:04:49.052Z,101158.19
2023-03-11T17:07:17.508Z,101149.97
2023-03-11T17:09:46.323Z,101148.81
2023-03-11T17:12:16.676Z,101147.66
2023-03-11T17:14:45.404Z,101142.22
2023-03-11T17:17:14.162Z,101149.78
2023-03-11T17:19:44.602Z,101141.75
2023-03-11T17:22:14.131Z,101146.63
2023-03-11T17:24:42.973Z,101142.94
2023-03-11T17:27:11.956Z,101150.41
2023-03-11T17:29:40.461Z,101158.88
2023-03-11T17:32:09.657Z,101162.88
2023-03-11T17:34:38.129Z,101168.59
2023-03-11T17:37:07.961Z,101171.63
2023-03-11T17:39:37.133Z,101172.22
2023-03-11T17:42:06.127Z,101170.22
2023-03-11T17:44:50.239Z,101163.94
2023-03-11T17:47:20.612Z,101168.81
2023-03-11T17:49:49.864Z,101172.16
2023-03-11T17:52:19.978Z,101174.56
2023-03-11T17:54:48.750Z,101168.34
2023-03-11T17:57:17.433Z,101176.69
2023-03-11T17:59:45.967Z,101183.50
2023-03-11T18:02:15.177Z,101176.50
2023-03-11T18:04:46.170Z,101181.44
2023-03-11T18:07:15.036Z,101176.06
2023-03-11T18:09:45.689Z,101170.78
2023-03-11T18:12:14.527Z,101186.16
2023-03-11T18:14:43.313Z,101193.91
2023-03-11T18:17:11.937Z,101196.50
2023-03-11T18:19:40.623Z,101197.34
2023-03-11T18:22:09.054Z,101197.91
2023-03-11T18:24:37.438Z,101191.88
2023-03-11T18:27:07.801Z,101196.00
2023-03-11T18:29:36.236Z,101188.16
2023-03-11T18:32:04.789Z,101194.25
2023-03-11T18:34:33.268Z,101195.13
2023-03-11T18:37:01.839Z,101182.72
2023-03-11T18:39:30.526Z,101196.69
2023-03-11T18:41:59.425Z,101200.94
2023-03-11T18:44:29.840Z,101199.97
2023-03-11T18:46:58.709Z,101207.69
2023-03-11T18:49:29.192Z,101206.66
2023-03-11T18:51:57.699Z,101200.47
2023-03-11T18:54:26.609Z,101207.16
2023-03-11T18:56:55.053Z,101206.16
2023-03-11T18:59:24.031Z,101200.03
2023-03-11T19:01:53.880Z,101207.66
2023-03-11T19:04:22.500Z,101206.66
2023-03-11T19:06:51.350Z,101206.47
2023-03-11T19:09:19.876Z,101202.84
2023-03-11T19:11:49.139Z,101208.84
2023-03-11T19:14:17.659Z,101206.06
2023-03-11T19:16:46.255Z,101204.28
2023-03-11T19:19:16.212Z,101206.81
2023-03-11T19:21:45.734Z,101210.28
2023-03-11T19:24:14.475Z,101212.72
2023-03-11T19:26:45.473Z,101217.88
2023-03-11T19:29:14.868Z,101222.13
2023-03-11T19:31:45.498Z,101215.09
2023-03-11T19:34:15.833Z,101222.63
2023-03-11T19:36:44.271Z,101219.09
2023-03-11T19:39:12.794Z,101221.66
2023-03-11T19:41:41.395Z,101218.84
2023-03-11T19:44:09.905Z,101212.78
2023-03-11T19:46:38.389Z,101224.03
2023-03-11T19:49:07.518Z,101225.78
2023-03-11T19:51:49.128Z,101226.66
2023-03-11T19:54:18.505Z,101220.69
2023-03-11T19:56:48.226Z,101215.72
2023-03-11T19:59:17.228Z,101220.22
2023-03-11T20:01:46.017Z,101223.78
2023-03-11T20:04:15.426Z,101221.28
2023-03-11T20:06:46.050Z,101224.81
2023-03-11T20:09:16.225Z,101228.22
2023-03-11T20:11:46.103Z,101216.78
2023-03-11T20:14:15.165Z,101228.22
2023-03-11T20:16:43.930Z,101232.56
2023-03-11T20:19:12.502Z,101221.97
2023-03-11T20:21:41.575Z,101234.88
2023-03-11T20:24:12.303Z,101232.97
2023-03-11T20:26:40.801Z,101232.72
2023-03-11T20:29:10.757Z,101227.41
2023-03-11T20:31:39.406Z,101233.25
2023-03-11T20:34:07.947Z,101240.84
2023-03-11T20:36:36.443Z,101242.34
2023-03-11T20:39:09.433Z,101237.03
2023-03-11T20:41:42.045Z,101237.78
2023-03-11T20:44:15.509Z,101246.22
2023-03-11T20:46:44.217Z,101240.03
2023-03-11T20:49:14.066Z,101243.28
2023-03-11T20:51:43.857Z,101236.06
2023-03-11T20:54:12.824Z,101238.53
2023-03-11T20:56:43.215Z,101239.97
2023-03-11T20:59:14.920Z,101236.31
2023-03-11T21:01:46.257Z,101247.25
2023-03-11T21:04:16.661Z,101243.50
2023-03-11T21:06:46.274Z,101240.75
2023-03-11T21:09:16.124Z,101240.75
2023-03-11T21:11:46.955Z,101238.16
2023-03-11T21:14:17.557Z,101248.34
2023-03-11T21:16:46.598Z,101236.13
2023-03-11T21:19:15.517Z,101239.34
2023-03-11T21:21:44.450Z,101240.75
2023-03-11T21:24:13.145Z,101245.69
2023-03-11T21:26:42.378Z,101248.06
2023-03-11T21:29:12.252Z,101247.81
2023-03-11T21:31:40.885Z,101248.34
2023-03-11T21:34:12.043Z,101247.28
2023-03-11T21:36:40.894Z,101235.97
2023-03-11T21:39:09.475Z,101240.25
2023-03-11T21:41:38.761Z,101239.19
2023-03-11T21:44:07.313Z,101237.44
2023-03-11T21:46:37.199Z,101230.38
2023-03-11T21:49:05.779Z,101237.88
2023-03-11T21:51:34.377Z,101234.25
2023-03-11T21:54:03.698Z,101234.09
2023-03-11T21:56:32.502Z,101229.72
2023-03-11T21:59:01.045Z,101229.09
2023-03-11T22:01:30.001Z,101229.09
2023-03-11T22:03:59.892Z,101224.81
2023-03-11T22:06:30.961Z,101225.94
2023-03-11T22:08:59.699Z,101228.75
2023-03-11T22:11:28.828Z,101222.84
2023-03-11T22:14:00.621Z,101224.59
2023-03-11T22:16:29.889Z,101231.47
2023-03-11T22:18:59.943Z,101231.47
2023-03-11T22:21:28.919Z,101221.22
2023-03-11T22:23:57.795Z,101231.47
2023-03-11T22:26:26.609Z,101227.13
2023-03-11T22:28:55.863Z,101230.50
2023-03-11T22:31:24.360Z,101234.78
2023-03-11T22:33:53.429Z,101226.09
2023-03-11T22:36:23.467Z,101233.00
2023-03-11T22:38:51.863Z,101227.13
2023-03-11T22:41:20.591Z,101235.00
2023-03-11T22:43:49.066Z,101232.44
2023-03-11T22:46:17.490Z,101235.81
2023-03-11T22:48:45.999Z,101226.97
2023-03-11T22:51:15.032Z,101225.22
2023-03-11T22:53:45.269Z,101233.69
2023-03-11T22:56:16.996Z,101234.97
2023-03-11T22:58:46.576Z,101235.63
2023-03-11T23:01:16.550Z,101239.16
2023-03-11T23:03:45.645Z,101226.19
2023-03-11T23:06:20.348Z,101239.16
2023-03-11T23:08:50.585Z,101236.50
2023-03-11T23:11:22.084Z,101233.13
2023-03-11T23:13:51.453Z,101230.56
2023-03-11T23:16:22.732Z,101230.56
2023-03-11T23:18:55.376Z,101233.00
2023-03-11T23:21:26.976Z,101236.44
2023-03-11T23:23:58.110Z,101236.34
2023-03-11T23:26:26.634Z,101226.94
2023-03-11T23:28:55.414Z,101231.34
2023-03-11T23:31:26.755Z,101233.28
2023-03-11T23:33:55.339Z,101231.34
2023-03-11T23:36:26.764Z,101234.88
2023-03-11T23:38:56.674Z,101234.97
2023-03-11T23:41:25.374Z,101238.53
2023-03-11T23:43:53.786Z,101237.00
2023-03-11T23:46:22.215Z,101235.50
2023-03-11T23:48:51.121Z,101229.63
2023-03-11T23:51:19.488Z,101221.16
2023-03-11T23:53:48.053Z,101223.88
2023-03-11T23:56:19.266Z,101223.06
2023-03-11T23:58:48.248Z,101223.88
